sensor_id;sensor_type;location;lat;lon;timestamp;pressure;altitude;pressure_sealevel;temperature;humidity
23953;BME280;12163;49.316;6.092;2023-03-12T00:01:40;99009.53;;;4.15;66.06
23953;BME280;12163;49.316;6.092;2023-03-12T00:04:07;99009.28;;;4.16;66.15
23953;BME280;12163;49.316;6.092;2023-03-12T00:06:33;99001.28;;;4.16;66.19
23953;BME280;12163;49.316;6.092;2023-03-12T00:09:00;99015.69;;;4.15;65.82
23953;BME280;12163;49.316;6.092;2023-03-12T00:11:27;99011.13;;;4.16;66.13
23953;BME280;12163;49.316;6.092;2023-03-12T00:13:55;99011.13;;;4.16;65.94
23953;BME280;12163;49.316;6.092;2023-03-12T00:16:23;99007.16;;;4.18;66.52
23953;BME280;12163;49.316;6.092;2023-03-12T00:18:52;99006.88;;;4.20;66.62
23953;BME280;12163;49.316;6.092;2023-03-12T00:21:19;99002.13;;;4.22;66.29
23953;BME280;12163;49.316;6.092;2023-03-12T00:23:47;99003.16;;;4.21;66.05
23953;BME280;12163;49.316;6.092;2023-03-12T00:26:15;98998.88;;;4.20;65.87
23953;BME280;12163;49.316;6.092;2023-03-12T00:28:42;99002.88;;;4.17;65.63
23953;BME280;12163;49.316;6.092;2023-03-12T00:31:18;99005.25;;;4.14;65.67
23953;BME280;12163;49.316;6.092;2023-03-12T00:33:46;99010.03;;;4.12;65.91
23953;BME280;12163;49.316;6.092;2023-03-12T00:36:16;99008.44;;;4.11;65.81
23953;BME280;12163;49.316;6.092;2023-03-12T00:38:43;99005.22;;;4.09;65.77
23953;BME280;12163;49.316;6.092;2023-03-12T00:41:10;98997.75;;;4.11;65.88
23953;BME280;12163;49.316;6.092;2023-03-12T00:43:37;98990.84;;;4.15;65.83
23953;BME280;12163;49.316;6.092;2023-03-12T00:46:03;98984.19;;;4.17;65.63
23953;BME280;12163;49.316;6.092;2023-03-12T00:48:30;98981.00;;;4.20;65.74
23953;BME280;12163;49.316;6.092;2023-03-12T00:50:57;98978.09;;;4.22;65.77
23953;BME280;12163;49.316;6.092;2023-03-12T00:53:23;98972.22;;;4.25;65.97
23953;BME280;12163;49.316;6.092;2023-03-12T00:55:50;98964.22;;;4.30;65.73
23953;BME280;12163;49.316;6.092;2023-03-12T00:58:17;98962.09;;;4.32;66.03
23953;BME280;12163;49.316;6.092;2023-03-12T01:00:43;98969.06;;;4.33;65.86
23953;BME280;12163;49.316;6.092;2023-03-12T01:03:10;98976.00;;;4.34;65.68
23953;BME280;12163;49.316;6.092;2023-03-12T01:05:37;98967.44;;;4.32;65.94
23953;BME280;12163;49.316;6.092;2023-03-12T01:08:07;98964.53;;;4.33;65.73
23953;BME280;12163;49.316;6.092;2023-03-12T01:10:34;98961.59;;;4.35;66.11
23953;BME280;12163;49.316;6.092;2023-03-12T01:13:02;98968.53;;;4.36;66.48
23953;BME280;12163;49.316;6.092;2023-03-12T01:15:28;98969.34;;;4.36;66.17
23953;BME280;12163;49.316;6.092;2023-03-12T01:17:55;98968.53;;;4.36;66.08
23953;BME280;12163;49.316;6.092;2023-03-12T01:20:22;98970.66;;;4.34;66.01
23953;BME280;12163;49.316;6.092;2023-03-12T01:22:49;98972.25;;;4.35;66.17
23953;BME280;12163;49.316;6.092;2023-03-12T01:25:17;98966.13;;;4.34;66.39
23953;BME280;12163;49.316;6.092;2023-03-12T01:27:44;98958.66;;;4.36;66.45
23953;BME280;12163;49.316;6.092;2023-03-12T01:30:10;98966.41;;;4.38;66.75
23953;BME280;12163;49.316;6.092;2023-03-12T01:32:37;98958.94;;;4.40;66.24
23953;BME280;12163;49.316;6.092;2023-03-12T01:35:05;98959.75;;;4.40;66.25
23953;BME280;12163;49.316;6.092;2023-03-12T01:37:32;98960.00;;;4.44;66.46
23953;BME280;12163;49.316;6.092;2023-03-12T01:39:59;98958.69;;;4.46;66.27
23953;BME280;12163;49.316;6.092;2023-03-12T01:42:26;98964.59;;;4.48;66.72
23953;BME280;12163;49.316;6.092;2023-03-12T01:44:56;98949.91;;;4.51;66.47
23953;BME280;12163;49.316;6.092;2023-03-12T01:47:24;98945.66;;;4.55;66.22
23953;BME280;12163;49.316;6.092;2023-03-12T01:49:53;98950.19;;;4.54;66.37
23953;BME280;12163;49.316;6.092;2023-03-12T01:52:24;98931.22;;;4.56;66.36
23953;BME280;12163;49.316;6.092;2023-03-12T01:55:02;98932.84;;;4.57;66.75
23953;BME280;12163;49.316;6.092;2023-03-12T01:57:36;98925.88;;;4.56;66.85
23953;BME280;12163;49.316;6.092;2023-03-12T02:00:12;98922.97;;;4.57;66.40
23953;BME280;12163;49.316;6.092;2023-03-12T02:02:41;98913.88;;;4.58;66.45
23953;BME280;12163;49.316;6.092;2023-03-12T02:05:15;98918.16;;;4.59;66.67
23953;BME280;12163;49.316;6.092;2023-03-12T02:07:45;98926.19;;;4.59;66.52
23953;BME280;12163;49.316;6.092;2023-03-12T02:10:12;98918.41;;;4.58;66.94
23953;BME280;12163;49.316;6.092;2023-03-12T02:12:39;98928.03;;;4.59;67.19
23953;BME280;12163;49.316;6.092;2023-03-12T02:15:06;98936.88;;;4.59;67.17
23953;BME280;12163;49.316;6.092;2023-03-12T02:17:34;98937.66;;;4.60;67.36
23953;BME280;12163;49.316;6.092;2023-03-12T02:20:22;98945.94;;;4.58;67.91
23953;BME280;12163;49.316;6.092;2023-03-12T02:23:02;98945.13;;;4.58;68.18
23953;BME280;12163;49.316;6.092;2023-03-12T02:25:37;98936.88;;;4.59;68.20
23953;BME280;12163;49.316;6.092;2023-03-12T02:28:07;98943.53;;;4.62;68.46
23953;BME280;12163;49.316;6.092;2023-03-12T02:30:35;98934.97;;;4.60;67.88
23953;BME280;12163;49.316;6.092;2023-03-12T02:33:06;98931.53;;;4.59;68.65
23953;BME280;12163;49.316;6.092;2023-03-12T02:35:33;98937.66;;;4.60;68.94
23953;BME280;12163;49.316;6.092;2023-03-12T02:37:59;98932.84;;;4.62;69.19
23953;BME280;12163;49.316;6.092;2023-03-12T02:40:28;98932.31;;;4.60;69.56
23953;BME280;12163;49.316;6.092;2023-03-12T02:42:56;98934.72;;;4.56;69.67
23953;BME280;12163;49.316;6.092;2023-03-12T02:45:24;98932.06;;;4.56;70.11
23953;BME280;12163;49.316;6.092;2023-03-12T02:47:51;98926.13;;;4.54;69.98
23953;BME280;12163;49.316;6.092;2023-03-12T02:50:18;98934.97;;;4.50;70.15
23953;BME280;12163;49.316;6.092;2023-03-12T02:52:44;98930.94;;;4.47;70.64
23953;BME280;12163;49.316;6.092;2023-03-12T02:55:11;98925.84;;;4.46;70.82
23953;BME280;12163;49.316;6.092;2023-03-12T02:57:37;98934.13;;;4.44;71.32
23953;BME280;12163;49.316;6.092;2023-03-12T03:00:06;98924.75;;;4.42;71.12
23953;BME280;12163;49.316;6.092;2023-03-12T03:02:38;98915.66;;;4.38;71.79
23953;BME280;12163;49.316;6.092;2023-03-12T03:05:05;98913.50;;;4.35;71.77
23953;BME280;12163;49.316;6.092;2023-03-12T03:07:32;98915.09;;;4.31;72.10
23953;BME280;12163;49.316;6.092;2023-03-12T03:09:59;98916.38;;;4.23;72.32
23953;BME280;12163;49.316;6.092;2023-03-12T03:12:32;98913.69;;;4.18;71.99
23953;BME280;12163;49.316;6.092;2023-03-12T03:14:59;98922.47;;;4.14;72.47
23953;BME280;12163;49.316;6.092;2023-03-12T03:17:26;98920.88;;;4.13;72.91
23953;BME280;12163;49.316;6.092;2023-03-12T03:19:53;98919.03;;;4.13;73.13
23953;BME280;12163;49.316;6.092;2023-03-12T03:22:20;98909.41;;;4.12;73.15
23953;BME280;12163;49.316;6.092;2023-03-12T03:24:47;98903.78;;;4.14;74.22
23953;BME280;12163;49.316;6.092;2023-03-12T03:27:14;98907.28;;;4.14;73.86
23953;BME280;12163;49.316;6.092;2023-03-12T03:29:40;98910.47;;;4.11;73.94
23953;BME280;12163;49.316;6.092;2023-03-12T03:32:07;98907.22;;;4.09;74.19
23953;BME280;12163;49.316;6.092;2023-03-12T03:34:33;98914.97;;;4.06;74.62
23953;BME280;12163;49.316;6.092;2023-03-12T03:37:00;98915.50;;;4.03;74.82
23953;BME280;12163;49.316;6.092;2023-03-12T03:39:28;98904.28;;;4.01;74.68
23953;BME280;12163;49.316;6.092;2023-03-12T03:41:55;98895.13;;;3.92;75.00
23953;BME280;12163;49.316;6.092;2023-03-12T03:44:21;98894.28;;;3.86;75.27
23953;BME280;12163;49.316;6.092;2023-03-12T03:46:48;98894.00;;;3.83;75.59
23953;BME280;12163;49.316;6.092;2023-03-12T03:49:15;98892.41;;;3.82;76.16
23953;BME280;12163;49.316;6.092;2023-03-12T03:51:42;98898.81;;;3.86;76.00
23953;BME280;12163;49.316;6.092;2023-03-12T03:54:09;98890.81;;;3.86;76.23
23953;BME280;12163;49.316;6.092;2023-03-12T03:56:36;98880.66;;;3.83;76.39
23953;BME280;12163;49.316;6.092;2023-03-12T03:59:02;98876.09;;;3.78;77.00
23953;BME280;12163;49.316;6.092;2023-03-12T04:01:29;98886.47;;;3.75;77.13
23953;BME280;12163;49.316;6.092;2023-03-12T04:03:57;98882.75;;;3.76;77.26
23953;BME280;12163;49.316;6.092;2023-03-12T04:06:24;98895.03;;;3.77;77.53
23953;BME280;12163;49.316;6.092;2023-03-12T04:08:51;98892.34;;;3.77;77.85
23953;BME280;12163;49.316;6.092;2023-03-12T04:11:19;98881.94;;;3.75;78.12
23953;BME280;12163;49.316;6.092;2023-03-12T04:13:47;98892.63;;;3.75;77.92
23953;BME280;12163;49.316;6.092;2023-03-12T04:16:15;98891.56;;;3.76;78.10
23953;BME280;12163;49.316;6.092;2023-03-12T04:18:43;98897.13;;;3.75;78.18
23953;BME280;12163;49.316;6.092;2023-03-12T04:21:11;98902.47;;;3.75;78.24
23953;BME280;12163;49.316;6.092;2023-03-12T04:23:38;98894.22;;;3.76;78.42
23953;BME280;12163;49.316;6.092;2023-03-12T04:26:06;98889.69;;;3.77;78.64
23953;BME280;12163;49.316;6.092;2023-03-12T04:28:33;98891.88;;;3.80;78.53
23953;BME280;12163;49.316;6.092;2023-03-12T04:31:02;98884.41;;;3.82;78.96
23953;BME280;12163;49.316;6.092;2023-03-12T04:33:32;98883.34;;;3.83;79.15
23953;BME280;12163;49.316;6.092;2023-03-12T04:35:59;98881.22;;;3.85;79.06
23953;BME280;12163;49.316;6.092;2023-03-12T04:38:26;98879.09;;;3.87;78.91
23953;BME280;12163;49.316;6.092;2023-03-12T04:41:07;98876.16;;;3.88;79.11
23953;BME280;12163;49.316;6.092;2023-03-12T04:43:34;98874.84;;;3.91;79.50
23953;BME280;12163;49.316;6.092;2023-03-12T04:46:01;98870.84;;;3.93;79.64
23953;BME280;12163;49.316;6.092;2023-03-12T04:48:28;98874.63;;;3.97;79.32
23953;BME280;12163;49.316;6.092;2023-03-12T04:50:55;98869.81;;;3.99;79.42
23953;BME280;12163;49.316;6.092;2023-03-12T04:53:22;98874.91;;;4.01;79.95
23953;BME280;12163;49.316;6.092;2023-03-12T04:55:49;98869.03;;;4.04;79.30
23953;BME280;12163;49.316;6.092;2023-03-12T04:58:17;98870.66;;;4.05;79.79
23953;BME280;12163;49.316;6.092;2023-03-12T05:00:44;98874.38;;;4.04;79.29
23953;BME280;12163;49.316;6.092;2023-03-12T05:03:10;98880.25;;;4.01;79.29
23953;BME280;12163;49.316;6.092;2023-03-12T05:05:37;98884.47;;;3.97;79.57
23953;BME280;12163;49.316;6.092;2023-03-12T05:08:04;98885.00;;;3.94;79.38
23953;BME280;12163;49.316;6.092;2023-03-12T05:10:31;98888.47;;;3.89;79.67
23953;BME280;12163;49.316;6.092;2023-03-12T05:12:58;98881.22;;;3.90;79.76
23953;BME280;12163;49.316;6.092;2023-03-12T05:15:25;98888.72;;;3.93;79.71
23953;BME280;12163;49.316;6.092;2023-03-12T05:17:52;98895.41;;;3.95;79.96
23953;BME280;12163;49.316;6.092;2023-03-12T05:20:20;98890.88;;;3.96;79.88
23953;BME280;12163;49.316;6.092;2023-03-12T05:22:46;98893.03;;;3.99;80.10
23953;BME280;12163;49.316;6.092;2023-03-12T05:25:13;98888.50;;;3.99;80.10
23953;BME280;12163;49.316;6.092;2023-03-12T05:27:40;98898.94;;;4.01;79.94
23953;BME280;12163;49.316;6.092;2023-03-12T05:30:07;98896.81;;;4.03;80.30
23953;BME280;12163;49.316;6.092;2023-03-12T05:32:35;98894.13;;;4.03;79.80
23953;BME280;12163;49.316;6.092;2023-03-12T05:35:02;98888.78;;;4.03;80.04
23953;BME280;12163;49.316;6.092;2023-03-12T05:37:28;98887.97;;;4.02;80.41
23953;BME280;12163;49.316;6.092;2023-03-12T05:39:55;98890.41;;;4.04;80.04
23953;BME280;12163;49.316;6.092;2023-03-12T05:42:23;98877.59;;;4.06;80.27
23953;BME280;12163;49.316;6.092;2023-03-12T05:44:50;98881.34;;;4.05;80.34
23953;BME280;12163;49.316;6.092;2023-03-12T05:47:17;98887.72;;;4.04;80.40
23953;BME280;12163;49.316;6.092;2023-03-12T05:49:44;98887.44;;;4.00;80.36
23953;BME280;12163;49.316;6.092;2023-03-12T05:52:11;98885.59;;;4.01;80.01
23953;BME280;12163;49.316;6.092;2023-03-12T05:54:38;98887.84;;;4.29;81.27
23953;BME280;12163;49.316;6.092;2023-03-12T05:57:04;98884.34;;;5.29;82.44
23953;BME280;12163;49.316;6.092;2023-03-12T05:59:31;98885.91;;;6.10;81.39
23953;BME280;12163;49.316;6.092;2023-03-12T06:01:58;98886.19;;;6.72;79.30
23953;BME280;12163;49.316;6.092;2023-03-12T06:04:24;98885.31;;;7.25;77.33
23953;BME280;12163;49.316;6.092;2023-03-12T06:06:51;98885.75;;;7.70;75.32
23953;BME280;12163;49.316;6.092;2023-03-12T06:09:18;98879.91;;;7.92;73.32
23953;BME280;12163;49.316;6.092;2023-03-12T06:11:44;98887.69;;;7.65;70.37
23953;BME280;12163;49.316;6.092;2023-03-12T06:14:11;98890.25;;;7.13;70.57
23953;BME280;12163;49.316;6.092;2023-03-12T06:16:38;98898.28;;;6.64;71.62
23953;BME280;12163;49.316;6.092;2023-03-12T06:19:05;98900.31;;;6.29;71.92
23953;BME280;12163;49.316;6.092;2023-03-12T06:21:34;98904.94;;;6.04;72.95
23953;BME280;12163;49.316;6.092;2023-03-12T06:24:01;98905.50;;;5.81;73.00
23953;BME280;12163;49.316;6.092;2023-03-12T06:26:28;98908.44;;;5.69;73.72
23953;BME280;12163;49.316;6.092;2023-03-12T06:28:55;98910.84;;;5.46;73.72
23953;BME280;12163;49.316;6.092;2023-03-12T06:31:22;98916.44;;;5.29;74.58
23953;BME280;12163;49.316;6.092;2023-03-12T06:33:49;98910.28;;;5.19;75.03
23953;BME280;12163;49.316;6.092;2023-03-12T06:36:16;98914.31;;;5.11;75.51
23953;BME280;12163;49.316;6.092;2023-03-12T06:38:43;98916.41;;;5.09;75.96
23953;BME280;12163;49.316;6.092;2023-03-12T06:41:12;98922.81;;;5.03;75.64
23953;BME280;12163;49.316;6.092;2023-03-12T06:43:40;98924.44;;;5.04;76.48
23953;BME280;12163;49.316;6.092;2023-03-12T06:46:11;98922.03;;;5.13;76.50
23953;BME280;12163;49.316;6.092;2023-03-12T06:48:39;98926.56;;;5.07;76.47
23953;BME280;12163;49.316;6.092;2023-03-12T06:51:11;98926.56;;;5.02;76.81
23953;BME280;12163;49.316;6.092;2023-03-12T06:53:38;98921.75;;;4.99;76.94
23953;BME280;12163;49.316;6.092;2023-03-12T06:56:08;98920.16;;;4.98;77.30
23953;BME280;12163;49.316;6.092;2023-03-12T06:58:35;98917.47;;;4.98;77.32
23953;BME280;12163;49.316;6.092;2023-03-12T07:01:01;98927.63;;;4.96;77.40
23953;BME280;12163;49.316;6.092;2023-03-12T07:03:28;98925.50;;;4.93;77.56
23953;BME280;12163;49.316;6.092;2023-03-12T07:05:56;98936.44;;;4.92;77.79
23953;BME280;12163;49.316;6.092;2023-03-12T07:08:24;98930.81;;;4.89;77.71
23953;BME280;12163;49.316;6.092;2023-03-12T07:10:51;98934.53;;;4.88;78.21
23953;BME280;12163;49.316;6.092;2023-03-12T07:13:17;98936.16;;;4.89;78.28
23953;BME280;12163;49.316;6.092;2023-03-12T07:15:44;98938.31;;;4.92;78.80
23953;BME280;12163;49.316;6.092;2023-03-12T07:18:12;98942.59;;;4.97;78.70
23953;BME280;12163;49.316;6.092;2023-03-12T07:20:41;98942.59;;;5.02;79.17
23953;BME280;12163;49.316;6.092;2023-03-12T07:23:09;98948.25;;;5.06;78.67
23953;BME280;12163;49.316;6.092;2023-03-12T07:25:38;98955.97;;;5.07;78.67
23953;BME280;12163;49.316;6.092;2023-03-12T07:28:05;98955.97;;;5.07;79.35
23953;BME280;12163;49.316;6.092;2023-03-12T07:30:32;98959.19;;;5.09;78.95
23953;BME280;12163;49.316;6.092;2023-03-12T07:33:04;98949.31;;;5.10;79.05
23953;BME280;12163;49.316;6.092;2023-03-12T07:35:31;98954.41;;;5.16;79.40
23953;BME280;12163;49.316;6.092;2023-03-12T07:37:59;98950.69;;;5.27;79.41
23953;BME280;12163;49.316;6.092;2023-03-12T07:40:27;98951.78;;;5.36;79.44
23953;BME280;12163;49.316;6.092;2023-03-12T07:42:53;98957.91;;;5.42;79.61
23953;BME280;12163;49.316;6.092;2023-03-12T07:45:20;98952.59;;;5.47;79.45
23953;BME280;12163;49.316;6.092;2023-03-12T07:47:47;98964.63;;;5.49;79.10
23953;BME280;12163;49.316;6.092;2023-03-12T07:50:15;98946.97;;;5.48;79.50
23953;BME280;12163;49.316;6.092;2023-03-12T07:52:43;98957.13;;;5.51;79.70
23953;BME280;12163;49.316;6.092;2023-03-12T07:55:10;98952.31;;;5.53;79.32
23953;BME280;12163;49.316;6.092;2023-03-12T07:57:37;98956.34;;;5.56;79.96
23953;BME280;12163;49.316;6.092;2023-03-12T08:00:05;98965.72;;;5.58;80.14
23953;BME280;12163;49.316;6.092;2023-03-12T08:02:35;98965.97;;;5.62;80.02
23953;BME280;12163;49.316;6.092;2023-03-12T08:05:02;98976.16;;;5.70;80.33
23953;BME280;12163;49.316;6.092;2023-03-12T08:07:30;98963.06;;;5.78;80.39
23953;BME280;12163;49.316;6.092;2023-03-12T08:09:58;98967.34;;;5.84;80.32
23953;BME280;12163;49.316;6.092;2023-03-12T08:12:26;98963.03;;;5.93;80.46
23953;BME280;12163;49.316;6.092;2023-03-12T08:14:53;98965.19;;;6.01;80.86
23953;BME280;12163;49.316;6.092;2023-03-12T08:17:21;98963.59;;;6.05;80.66
23953;BME280;12163;49.316;6.092;2023-03-12T08:19:48;98965.44;;;6.10;80.49
23953;BME280;12163;49.316;6.092;2023-03-12T08:22:14;98974.03;;;6.12;80.38
23953;BME280;12163;49.316;6.092;2023-03-12T08:24:41;98974.28;;;6.15;80.23
23953;BME280;12163;49.316;6.092;2023-03-12T08:27:08;98977.75;;;6.21;80.71
23953;BME280;12163;49.316;6.092;2023-03-12T08:29:38;98982.28;;;6.30;80.88
23953;BME280;12163;49.316;6.092;2023-03-12T08:32:05;98984.94;;;6.40;81.05
23953;BME280;12163;49.316;6.092;2023-03-12T08:34:33;98980.66;;;6.49;80.80
23953;BME280;12163;49.316;6.092;2023-03-12T08:37:00;98984.34;;;6.58;80.75
23953;BME280;12163;49.316;6.092;2023-03-12T08:39:28;98991.31;;;6.64;80.64
23953;BME280;12163;49.316;6.092;2023-03-12T08:41:55;98991.84;;;6.71;80.85
23953;BME280;12163;49.316;6.092;2023-03-12T08:44:23;98995.00;;;6.78;81.05
23953;BME280;12163;49.316;6.092;2023-03-12T08:46:50;98993.38;;;6.82;80.84
23953;BME280;12163;49.316;6.092;2023-03-12T08:49:18;98992.31;;;6.83;80.96
23953;BME280;12163;49.316;6.092;2023-03-12T08:51:44;98986.66;;;6.89;81.23
23953;BME280;12163;49.316;6.092;2023-03-12T08:54:11;98990.34;;;7.03;81.29
23953;BME280;12163;49.316;6.092;2023-03-12T08:56:38;99000.22;;;7.18;81.58
23953;BME280;12163;49.316;6.092;2023-03-12T08:59:09;99004.44;;;7.34;82.37
23953;BME280;12163;49.316;6.092;2023-03-12T09:01:37;99017.69;;;7.54;82.99
23953;BME280;12163;49.316;6.092;2023-03-12T09:04:04;99011.94;;;7.75;83.44
23953;BME280;12163;49.316;6.092;2023-03-12T09:06:31;99022.69;;;8.09;86.24
23953;BME280;12163;49.316;6.092;2023-03-12T09:08:59;99026.44;;;8.41;87.97
23953;BME280;12163;49.316;6.092;2023-03-12T09:11:34;99016.47;;;8.70;88.21
23953;BME280;12163;49.316;6.092;2023-03-12T09:14:02;99023.16;;;8.96;88.49
23953;BME280;12163;49.316;6.092;2023-03-12T09:16:48;99028.19;;;9.26;88.73
23953;BME280;12163;49.316;6.092;2023-03-12T09:19:15;99037.28;;;9.48;89.00
23953;BME280;12163;49.316;6.092;2023-03-12T09:21:42;99030.53;;;9.69;88.76
23953;BME280;12163;49.316;6.092;2023-03-12T09:24:09;99036.72;;;9.88;88.46
23953;BME280;12163;49.316;6.092;2023-03-12T09:26:36;99035.84;;;10.11;88.29
23953;BME280;12163;49.316;6.092;2023-03-12T09:29:03;99029.53;;;10.34;87.32
23953;BME280;12163;49.316;6.092;2023-03-12T09:31:30;99031.59;;;10.55;86.00
23953;BME280;12163;49.316;6.092;2023-03-12T09:33:57;99026.81;;;10.66;85.31
23953;BME280;12163;49.316;6.092;2023-03-12T09:36:23;99031.00;;;10.72;84.79
23953;BME280;12163;49.316;6.092;2023-03-12T09:38:50;99039.41;;;10.84;84.81
23953;BME280;12163;49.316;6.092;2023-03-12T09:41:22;99041.44;;;10.92;83.79
23953;BME280;12163;49.316;6.092;2023-03-12T09:44:04;99044.81;;;10.97;83.63
23953;BME280;12163;49.316;6.092;2023-03-12T09:46:42;99035.81;;;11.02;83.24
23953;BME280;12163;49.316;6.092;2023-03-12T09:49:34;99042.13;;;11.11;82.59
23953;BME280;12163;49.316;6.092;2023-03-12T09:52:19;99043.22;;;11.23;81.94
23953;BME280;12163;49.316;6.092;2023-03-12T09:55:10;99044.31;;;11.36;81.37
23953;BME280;12163;49.316;6.092;2023-03-12T09:57:41;99054.19;;;11.40;80.35
23953;BME280;12163;49.316;6.092;2023-03-12T10:00:14;99043.59;;;11.57;79.49
23953;BME280;12163;49.316;6.092;2023-03-12T10:05:50;99035.91;;;11.86;77.23
23953;BME280;12163;49.316;6.092;2023-03-12T10:08:32;99030.47;;;11.99;75.85
23953;BME280;12163;49.316;6.092;2023-03-12T10:14:05;99029.88;;;12.24;75.41
23953;BME280;12163;49.316;6.092;2023-03-12T10:19:55;99039.94;;;12.32;73.39
23953;BME280;12163;49.316;6.092;2023-03-12T10:22:48;99047.56;;;12.30;72.66
23953;BME280;12163;49.316;6.092;2023-03-12T10:25:41;99050.41;;;12.25;72.83
23953;BME280;12163;49.316;6.092;2023-03-12T10:31:01;99041.03;;;12.31;71.90
23953;BME280;12163;49.316;6.092;2023-03-12T10:33:41;99045.53;;;12.36;70.83
23953;BME280;12163;49.316;6.092;2023-03-12T10:36:22;99049.22;;;12.40;70.65
23953;BME280;12163;49.316;6.092;2023-03-12T10:38:50;99051.34;;;12.51;71.15
23953;BME280;12163;49.316;6.092;2023-03-12T10:41:20;99052.19;;;12.60;70.21
23953;BME280;12163;49.316;6.092;2023-03-12T10:43:47;99054.66;;;12.70;69.77
23953;BME280;12163;49.316;6.092;2023-03-12T10:48:41;99042.44;;;13.12;68.40
23953;BME280;12163;49.316;6.092;2023-03-12T10:51:10;99042.66;;;13.24;67.71
23953;BME280;12163;49.316;6.092;2023-03-12T10:53:42;99036.28;;;13.28;67.98
23953;BME280;12163;49.316;6.092;2023-03-12T10:56:18;99038.69;;;13.30;68.07
23953;BME280;12163;49.316;6.092;2023-03-12T10:58:49;99038.94;;;13.20;67.26
23953;BME280;12163;49.316;6.092;2023-03-12T11:01:20;99047.06;;;13.11;68.03
23953;BME280;12163;49.316;6.092;2023-03-12T11:03:47;99044.63;;;13.01;67.74
23953;BME280;12163;49.316;6.092;2023-03-12T11:06:25;99050.38;;;13.00;67.57
23953;BME280;12163;49.316;6.092;2023-03-12T11:11:44;99043.97;;;12.96;68.72
23953;BME280;12163;49.316;6.092;2023-03-12T11:29:25;99061.56;;;12.54;68.72
23953;BME280;12163;49.316;6.092;2023-03-12T11:32:15;99057.38;;;12.70;68.67
23953;BME280;12163;49.316;6.092;2023-03-12T11:34:44;99046.78;;;12.91;68.46
23953;BME280;12163;49.316;6.092;2023-03-12T11:51:45;99051.81;;;13.61;65.47
23953;BME280;12163;49.316;6.092;2023-03-12T12:00:18;99044.44;;;13.45;63.94
23953;BME280;12163;49.316;6.092;2023-03-12T12:11:22;99025.97;;;13.55;63.79
23953;BME280;12163;49.316;6.092;2023-03-12T12:14:31;99031.41;;;13.64;63.65
23953;BME280;12163;49.316;6.092;2023-03-12T12:17:17;99010.84;;;13.80;64.21
23953;BME280;12163;49.316;6.092;2023-03-12T12:19:56;99007.50;;;13.91;63.73
23953;BME280;12163;49.316;6.092;2023-03-12T12:23:08;99000.50;;;13.99;62.81
23953;BME280;12163;49.316;6.092;2023-03-12T12:36:33;99000.78;;;13.89;58.90
23953;BME280;12163;49.316;6.092;2023-03-12T12:39:07;98997.63;;;13.95;59.43
23953;BME280;12163;49.316;6.092;2023-03-12T12:41:37;98998.72;;;14.11;59.00
23953;BME280;12163;49.316;6.092;2023-03-12T12:44:13;98991.56;;;14.24;58.39
23953;BME280;12163;49.316;6.092;2023-03-12T12:46:46;98983.41;;;14.32;57.94
23953;BME280;12163;49.316;6.092;2023-03-12T12:52:06;98994.22;;;14.41;58.08
23953;BME280;12163;49.316;6.092;2023-03-12T13:02:23;98979.69;;;14.45;57.11
23953;BME280;12163;49.316;6.092;2023-03-12T13:04:55;98992.41;;;14.53;57.60
23953;BME280;12163;49.316;6.092;2023-03-12T13:09:54;98977.78;;;14.37;55.50
23953;BME280;12163;49.316;6.092;2023-03-12T13:12:41;98986.78;;;14.21;55.38
23953;BME280;12163;49.316;6.092;2023-03-12T13:20:21;98983.22;;;14.12;55.54
23953;BME280;12163;49.316;6.092;2023-03-12T13:23:16;98993.13;;;14.08;55.78
23953;BME280;12163;49.316;6.092;2023-03-12T13:26:05;99006.53;;;14.04;55.83
23953;BME280;12163;49.316;6.092;2023-03-12T13:31:38;99007.31;;;13.71;56.48
23953;BME280;12163;49.316;6.092;2023-03-12T13:36:35;99006.06;;;13.60;57.85
23953;BME280;12163;49.316;6.092;2023-03-12T13:41:36;99004.59;;;13.62;57.38
23953;BME280;12163;49.316;6.092;2023-03-12T13:44:22;99000.94;;;13.67;57.02
23953;BME280;12163;49.316;6.092;2023-03-12T13:52:25;98991.84;;;14.05;54.18
23953;BME280;12163;49.316;6.092;2023-03-12T13:55:20;98996.31;;;14.01;54.41
23953;BME280;12163;49.316;6.092;2023-03-12T13:57:56;98995.38;;;14.06;54.72
23953;BME280;12163;49.316;6.092;2023-03-12T14:03:15;99007.34;;;14.05;54.73
23953;BME280;12163;49.316;6.092;2023-03-12T14:05:50;99010.84;;;13.97;53.87
23953;BME280;12163;49.316;6.092;2023-03-12T14:11:16;98998.09;;;14.06;54.34
23953;BME280;12163;49.316;6.092;2023-03-12T14:16:28;98992.50;;;14.11;53.82
23953;BME280;12163;49.316;6.092;2023-03-12T14:18:56;98996.31;;;14.10;54.69
23953;BME280;12163;49.316;6.092;2023-03-12T14:21:23;98979.72;;;14.11;54.44
23953;BME280;12163;49.316;6.092;2023-03-12T14:23:55;98982.75;;;14.10;54.85
23953;BME280;12163;49.316;6.092;2023-03-12T14:26:26;98987.88;;;14.03;54.64
23953;BME280;12163;49.316;6.092;2023-03-12T14:29:00;98983.41;;;13.98;55.46
23953;BME280;12163;49.316;6.092;2023-03-12T14:31:29;98983.09;;;14.00;54.54
23953;BME280;12163;49.316;6.092;2023-03-12T14:34:17;98982.59;;;13.98;55.13
23953;BME280;12163;49.316;6.092;2023-03-12T14:37:15;98976.84;;;14.08;55.56
23953;BME280;12163;49.316;6.092;2023-03-12T14:39:55;98961.53;;;14.29;55.63
23953;BME280;12163;49.316;6.092;2023-03-12T14:42:32;98979.69;;;14.45;54.93
23953;BME280;12163;49.316;6.092;2023-03-12T14:45:02;98969.09;;;14.52;54.73
23953;BME280;12163;49.316;6.092;2023-03-12T14:47:29;98980.25;;;14.68;54.48
23953;BME280;12163;49.316;6.092;2023-03-12T14:49:57;98973.66;;;14.77;54.30
23953;BME280;12163;49.316;6.092;2023-03-12T14:52:27;98985.47;;;14.81;54.32
23953;BME280;12163;49.316;6.092;2023-03-12T14:55:06;98982.59;;;14.78;54.07
23953;BME280;12163;49.316;6.092;2023-03-12T14:57:33;98987.09;;;14.74;53.48
23953;BME280;12163;49.316;6.092;2023-03-12T15:00:00;98971.59;;;14.74;53.72
23953;BME280;12163;49.316;6.092;2023-03-12T15:02:29;98956.03;;;14.92;53.47
23953;BME280;12163;49.316;6.092;2023-03-12T15:04:58;98992.66;;;15.15;51.74
23953;BME280;12163;49.316;6.092;2023-03-12T15:07:31;98976.47;;;15.18;51.86
23953;BME280;12163;49.316;6.092;2023-03-12T15:10:01;98968.78;;;15.28;51.82
23953;BME280;12163;49.316;6.092;2023-03-12T15:12:32;98977.25;;;15.27;51.25
23953;BME280;12163;49.316;6.092;2023-03-12T15:15:07;98966.31;;;15.07;52.13